createdAt,value
2016-05-28T00:00:06.798Z,20
2016-05-28T00:00:16.782Z,20
2016-05-28T00:00:26.782Z,20
2016-05-28T00:00:36.798Z,20
2016-05-28T00:00:46.754Z,20
2016-05-28T00:00:56.754Z,20
2016-05-28T00:01:06.582Z,19.9
2016-05-28T00:01:16.723Z,19.9
2016-05-28T00:01:26.723Z,20
2016-05-28T00:01:36.551Z,19.9
2016-05-28T00:01:46.710Z,20
2016-05-28T00:01:56.522Z,20
2016-05-28T00:02:06.679Z,20
2016-05-28T00:02:16.663Z,20
2016-05-28T00:02:26.647Z,19.9
2016-05-28T00:02:36.647Z,20
2016-05-28T00:02:46.635Z,20
2016-05-28T00:02:56.619Z,19.9
2016-05-28T00:03:06.447Z,19.9
2016-05-28T00:03:16.447Z,19.9
2016-05-28T00:03:26.588Z,20
2016-05-28T00:03:36.588Z,20
2016-05-28T00:03:46.574Z,19.9
2016-05-28T00:03:56.559Z,20
2016-05-28T00:04:06.559Z,19.8
2016-05-28T00:04:16.527Z,19.9
2016-05-28T00:04:26.527Z,19.8
2016-05-28T00:04:36.512Z,19.9
2016-05-28T00:04:47.124Z,19.8
2016-05-28T00:04:56.343Z,20
2016-05-28T00:05:06.734Z,19.9
2016-05-28T00:05:16.484Z,19.9
2016-05-28T00:05:27.109Z,19.9
2016-05-28T00:05:36.452Z,20
2016-05-28T00:05:46.437Z,19.8
2016-05-28T00:05:56.268Z,19.9
2016-05-28T00:06:06.268Z,19.9
2016-05-28T00:06:16.252Z,19.8
2016-05-28T00:06:26.393Z,19.9
2016-05-28T00:06:36.237Z,19.9
2016-05-28T00:06:46.377Z,19.9
2016-05-28T00:06:56.364Z,19.8
2016-05-28T00:07:06.348Z,19.9
2016-05-28T00:07:16.348Z,19.8
2016-05-28T00:07:26.332Z,19.8
2016-05-28T00:07:36.317Z,19.7
2016-05-28T00:07:46.317Z,19.8
2016-05-28T00:07:56.305Z,19.8
2016-05-28T00:08:06.305Z,19.8
2016-05-28T00:08:16.289Z,19.9
2016-05-28T00:08:26.274Z,19.7
2016-05-28T00:08:36.102Z,19.8
2016-05-28T00:08:46.243Z,19.8
2016-05-28T00:08:56.245Z,19.8
2016-05-28T00:09:06.229Z,19.8
2016-05-28T00:09:16.213Z,19.8
2016-05-28T00:09:26.213Z,19.7
2016-05-28T00:09:36.041Z,19.8
2016-05-28T00:09:46.182Z,19.8
2016-05-28T00:09:56.028Z,19.7
2016-05-28T00:10:06.168Z,19.7
2016-05-28T00:10:15.997Z,19.8
2016-05-28T00:10:26.137Z,19.8
2016-05-28T00:10:36.137Z,19.7
2016-05-28T00:10:45.965Z,19.6
2016-05-28T00:10:56.110Z,19.7
2016-05-28T00:11:06.094Z,19.8
2016-05-28T00:11:15.938Z,19.8
2016-05-28T00:11:26.079Z,19.8
2016-05-28T00:11:35.907Z,19.7
2016-05-28T00:11:46.047Z,19.8
2016-05-28T00:11:56.049Z,19.6
2016-05-28T00:12:06.034Z,19.7
2016-05-28T00:12:16.018Z,19.8
2016-05-28T00:12:26.018Z,19.7
2016-05-28T00:12:36.003Z,19.8
2016-05-28T00:12:46.003Z,19.7
2016-05-28T00:12:55.974Z,19.7
2016-05-28T00:13:05.990Z,19.7
2016-05-28T00:13:15.959Z,19.7
2016-05-28T00:13:25.959Z,19.8
2016-05-28T00:13:35.787Z,19.7
2016-05-28T00:13:45.927Z,19.8
2016-05-28T00:13:55.915Z,19.9
2016-05-28T00:14:05.899Z,19.8
2016-05-28T00:14:15.899Z,19.8
2016-05-28T00:14:25.884Z,19.8
2016-05-28T00:14:35.884Z,19.8
2016-05-28T00:14:45.868Z,19.8
2016-05-28T00:14:55.854Z,19.7
2016-05-28T00:15:05.854Z,19.7
2016-05-28T00:15:15.839Z,19.7
2016-05-28T00:15:25.823Z,19.8
2016-05-28T00:15:35.823Z,19.7
2016-05-28T00:15:45.807Z,19.7
2016-05-28T00:15:55.810Z,19.6
2016-05-28T00:16:05.779Z,19.7
2016-05-28T00:16:15.764Z,19.6
2016-05-28T00:16:25.748Z,19.7
2016-05-28T00:16:35.764Z,19.6
2016-05-28T00:16:45.748Z,19.7
2016-05-28T00:16:55.734Z,19.8
2016-05-28T00:17:05.703Z,19.7
2016-05-28T00:17:15.703Z,19.8
2016-05-28T00:17:25.687Z,19.7
2016-05-28T00:17:35.687Z,19.7
2016-05-28T00:17:45.672Z,19.7
2016-05-28T00:17:55.659Z,19.7
2016-05-28T00:18:05.644Z,19.6
2016-05-28T00:18:15.644Z,19.7
2016-05-28T00:18:25.628Z,19.7
2016-05-28T00:18:35.612Z,19.6
2016-05-28T00:18:45.612Z,19.7
2016-05-28T00:18:55.600Z,19.6
2016-05-28T00:19:05.584Z,19.6
2016-05-28T00:19:15.584Z,19.6
2016-05-28T00:19:25.412Z,19.6
2016-05-28T00:19:35.568Z,19.6
2016-05-28T00:19:45.553Z,19.6
2016-05-28T00:19:55.540Z,19.7
2016-05-28T00:20:05.775Z,19.6
2016-05-28T00:20:16.556Z,19.6
2016-05-28T00:20:25.806Z,19.6
2016-05-28T00:20:35.493Z,19.6
2016-05-28T00:20:45.478Z,19.6
2016-05-28T00:20:55.480Z,19.6
2016-05-28T00:21:05.464Z,19.6
2016-05-28T00:21:15.448Z,19.6
2016-05-28T00:21:25.448Z,19.6
2016-05-28T00:21:35.433Z,19.7
2016-05-28T00:21:45.417Z,19.6
2016-05-28T00:21:55.405Z,19.6
2016-05-28T00:22:05.389Z,19.5
2016-05-28T00:22:15.233Z,19.7
2016-05-28T00:22:25.373Z,19.6
2016-05-28T00:22:35.201Z,19.6
2016-05-28T00:22:45.358Z,19.6
2016-05-28T00:22:55.345Z,19.8
2016-05-28T00:23:05.329Z,19.6
2016-05-28T00:23:15.329Z,19.7
2016-05-28T00:23:25.314Z,19.7
2016-05-28T00:23:35.298Z,19.5
2016-05-28T00:23:45.298Z,19.6
2016-05-28T00:23:55.286Z,19.5
2016-05-28T00:24:05.270Z,19.6
2016-05-28T00:24:15.270Z,19.6
2016-05-28T00:24:25.254Z,19.6
2016-05-28T00:24:35.239Z,19.6
2016-05-28T00:24:45.223Z,19.6
2016-05-28T00:24:55.209Z,19.5
2016-05-28T00:25:05.209Z,19.6
2016-05-28T00:25:15.194Z,19.6
2016-05-28T00:25:25.178Z,19.6
2016-05-28T00:25:35.178Z,19.5
2016-05-28T00:25:45.163Z,19.6
2016-05-28T00:25:55.008Z,19.6
2016-05-28T00:26:05.133Z,19.5
2016-05-28T00:26:15.133Z,19.6
2016-05-28T00:26:25.118Z,19.5
2016-05-28T00:26:35.102Z,19.6
2016-05-28T00:26:45.086Z,19.6
2016-05-28T00:26:55.090Z,19.5
2016-05-28T00:27:04.919Z,19.4
2016-05-28T00:27:15.059Z,19.5
2016-05-28T00:27:25.059Z,19.6
2016-05-28T00:27:35.044Z,19.4
2016-05-28T00:27:45.028Z,19.5
2016-05-28T00:27:55.030Z,19.6
2016-05-28T00:28:05.014Z,19.5
2016-05-28T00:28:14.999Z,19.5
2016-05-28T00:28:24.842Z,19.5
2016-05-28T00:28:34.983Z,19.5
2016-05-28T00:28:44.967Z,19.5
2016-05-28T00:28:54.955Z,19.5
2016-05-28T00:29:04.955Z,19.5
2016-05-28T00:29:14.939Z,19.5
2016-05-28T00:29:24.924Z,19.5
2016-05-28T00:29:34.908Z,19.5
2016-05-28T00:29:44.908Z,19.5
2016-05-28T00:29:54.895Z,19.5
2016-05-28T00:30:04.880Z,19.4
2016-05-28T00:30:14.880Z,19.5
2016-05-28T00:30:24.864Z,19.4
2016-05-28T00:30:34.864Z,19.4
2016-05-28T00:30:44.864Z,19.4
2016-05-28T00:30:54.819Z,19.3
2016-05-28T00:31:04.663Z,19.4
2016-05-28T00:31:14.804Z,19.5
2016-05-28T00:31:24.804Z,19.4
2016-05-28T00:31:34.788Z,19.4
2016-05-28T00:31:44.616Z,19.4
2016-05-28T00:31:54.775Z,19.4
2016-05-28T00:32:04.744Z,19.5
2016-05-28T00:32:14.744Z,19.4
2016-05-28T00:32:24.728Z,19.4
2016-05-28T00:32:34.728Z,19.5
2016-05-28T00:32:44.713Z,19.4
2016-05-28T00:32:54.544Z,19.4
2016-05-28T00:33:04.700Z,19.4
2016-05-28T00:33:14.685Z,19.4
2016-05-28T00:33:24.669Z,19.4
2016-05-28T00:33:34.653Z,19.4
2016-05-28T00:33:44.497Z,19.4
2016-05-28T00:33:54.640Z,19.4
2016-05-28T00:34:04.468Z,19.4
2016-05-28T00:34:14.608Z,19.4
2016-05-28T00:34:24.640Z,19.5
2016-05-28T00:34:34.452Z,19.4
2016-05-28T00:34:44.796Z,19.4
2016-05-28T00:34:54.424Z,19.4
2016-05-28T00:35:04.580Z,19.3
2016-05-28T00:35:14.440Z,19.4
2016-05-28T00:35:24.549Z,19.4
2016-05-28T00:35:34.533Z,19.4
2016-05-28T00:35:44.361Z,19.4
2016-05-28T00:35:54.505Z,19.3
2016-05-28T00:36:04.505Z,19.4
2016-05-28T00:36:14.489Z,19.2
2016-05-28T00:36:24.474Z,19.4
2016-05-28T00:36:34.318Z,19.5
2016-05-28T00:36:44.302Z,19.3
2016-05-28T00:36:54.446Z,19.4
2016-05-28T00:37:04.289Z,19.4
2016-05-28T00:37:14.274Z,19.5
2016-05-28T00:37:24.414Z,19.3
2016-05-28T00:37:34.399Z,19.4
2016-05-28T00:37:44.383Z,19.3
2016-05-28T00:37:54.385Z,19.4
2016-05-28T00:38:04.369Z,19.3
2016-05-28T00:38:14.354Z,19.5
2016-05-28T00:38:24.354Z,19.3
2016-05-28T00:38:34.338Z,19.4
2016-05-28T00:38:44.166Z,19.4
2016-05-28T00:38:54.169Z,19.4
2016-05-28T00:39:04.154Z,19.4
2016-05-28T00:39:14.138Z,19.3
2016-05-28T00:39:24.279Z,19.2
2016-05-28T00:39:34.279Z,19.4
2016-05-28T00:39:44.263Z,19.3
2016-05-28T00:39:54.265Z,19.3
2016-05-28T00:40:04.249Z,19.3
2016-05-28T00:40:14.234Z,19.3
2016-05-28T00:40:24.062Z,19.3
2016-05-28T00:40:34.203Z,19.4
2016-05-28T00:40:44.046Z,19.3
2016-05-28T00:40:54.206Z,19.4
2016-05-28T00:41:04.018Z,19.4
2016-05-28T00:41:14.159Z,19.3
2016-05-28T00:41:24.159Z,19.2
2016-05-28T00:41:34.143Z,19.4
2016-05-28T00:41:43.987Z,19.3
2016-05-28T00:41:54.130Z,19.3
2016-05-28T00:42:04.115Z,19.3
2016-05-28T00:42:14.099Z,19.3
2016-05-28T00:42:24.099Z,19.3
2016-05-28T00:42:34.084Z,19.4
2016-05-28T00:42:44.068Z,19.4
2016-05-28T00:42:54.071Z,19.3
2016-05-28T00:43:04.055Z,19.3
2016-05-28T00:43:14.040Z,19.4
2016-05-28T00:43:24.024Z,19.3
2016-05-28T00:43:34.024Z,19.3
2016-05-28T00:43:43.868Z,19.4
2016-05-28T00:43:54.010Z,19.3
2016-05-28T00:44:03.979Z,19.4
2016-05-28T00:44:13.979Z,19.3
2016-05-28T00:44:23.979Z,19.2
2016-05-28T00:44:33.948Z,19.3
2016-05-28T00:44:43.948Z,19.3
2016-05-28T00:44:53.951Z,19.4
2016-05-28T00:45:03.920Z,19.3
2016-05-28T00:45:13.920Z,19.3
2016-05-28T00:45:23.920Z,19.3
2016-05-28T00:45:33.888Z,19.2
2016-05-28T00:45:43.873Z,19.3
2016-05-28T00:45:53.860Z,19.4
2016-05-28T00:46:03.860Z,19.3
2016-05-28T00:46:13.845Z,19.4
2016-05-28T00:46:23.829Z,19.3
2016-05-28T00:46:33.829Z,19.4
2016-05-28T00:46:43.813Z,19.4
2016-05-28T00:46:53.816Z,19.3
2016-05-28T00:47:03.801Z,19.3
2016-05-28T00:47:13.785Z,19.4
2016-05-28T00:47:23.769Z,19.4
2016-05-28T00:47:33.754Z,19.3
2016-05-28T00:47:43.769Z,19.3
2016-05-28T00:47:53.740Z,19.4
2016-05-28T00:48:03.725Z,19.3
2016-05-28T00:48:13.709Z,19.4
2016-05-28T00:48:23.553Z,19.3
2016-05-28T00:48:33.693Z,19.4
2016-05-28T00:48:43.678Z,19.3
2016-05-28T00:48:53.696Z,19.3
2016-05-28T00:49:03.665Z,19.4
2016-05-28T00:49:13.649Z,19.4
2016-05-28T00:49:23.649Z,19.3
2016-05-28T00:49:33.915Z,19.3
2016-05-28T00:49:43.524Z,19.2
2016-05-28T00:49:53.964Z,19.3
2016-05-28T00:50:03.605Z,19.3
2016-05-28T00:50:13.589Z,19.4
2016-05-28T00:50:23.573Z,19.4
2016-05-28T00:50:33.558Z,19.3
2016-05-28T00:50:43.558Z,19.4
2016-05-28T00:50:53.545Z,19.4
2016-05-28T00:51:03.545Z,19.3
2016-05-28T00:51:13.529Z,19.3
2016-05-28T00:51:23.514Z,19.2
2016-05-28T00:51:33.498Z,19.5
2016-05-28T00:51:43.483Z,19.3
2016-05-28T00:51:53.486Z,19.3
2016-05-28T00:52:03.345Z,19.4
2016-05-28T00:52:13.470Z,19.3
2016-05-28T00:52:23.454Z,19.4
2016-05-28T00:52:33.439Z,19.4
2016-05-28T00:52:43.423Z,19.3
2016-05-28T00:52:53.409Z,19.3
2016-05-28T00:53:03.253Z,19.3
2016-05-28T00:53:13.394Z,19.3
2016-05-28T00:53:23.378Z,19.4
2016-05-28T00:53:33.378Z,19.1
2016-05-28T00:53:43.363Z,19.3
2016-05-28T00:53:53.350Z,19.3
2016-05-28T00:54:03.334Z,19.3
2016-05-28T00:54:13.178Z,19.3
2016-05-28T00:54:23.178Z,19.3
2016-05-28T00:54:33.303Z,19.3
2016-05-28T00:54:43.147Z,19.3
2016-05-28T00:54:53.290Z,19.3
2016-05-28T00:55:03.306Z,19.3
2016-05-28T00:55:13.275Z,19.2
2016-05-28T00:55:23.259Z,19.3
2016-05-28T00:55:33.259Z,19.4
2016-05-28T00:55:43.228Z,19.3
2016-05-28T00:55:53.230Z,19.3
2016-05-28T00:56:03.214Z,19.5
2016-05-28T00:56:13.214Z,19.2
2016-05-28T00:56:23.183Z,19.3
2016-05-28T00:56:33.183Z,19.3
2016-05-28T00:56:43.167Z,19.4
2016-05-28T00:56:53.156Z,19.4
2016-05-28T00:57:03.156Z,19.3
2016-05-28T00:57:13.140Z,19.4
2016-05-28T00:57:23.140Z,19.3
2016-05-28T00:57:33.125Z,19.4
2016-05-28T00:57:43.109Z,19.3
2016-05-28T00:57:53.095Z,19.3
2016-05-28T00:58:03.080Z,19.3
2016-05-28T00:58:13.080Z,19.3
2016-05-28T00:58:23.064Z,19.3
2016-05-28T00:58:32.908Z,19.3
2016-05-28T00:58:43.033Z,19.2
2016-05-28T00:58:53.035Z,19.3
2016-05-28T00:59:02.879Z,19.4
2016-05-28T00:59:13.004Z,19.3
2016-05-28T00:59:23.004Z,19.3
2016-05-28T00:59:32.988Z,19.3
2016-05-28T00:59:42.988Z,19.2
2016-05-28T00:59:52.976Z,19.2
2016-05-28T01:00:02.945Z,19.3
2016-05-28T01:00:12.789Z,19.3
2016-05-28T01:00:22.789Z,19.3
2016-05-28T01:00:32.929Z,19.4
2016-05-28T01:00:42.914Z,19.2
2016-05-28T01:00:52.900Z,19.2
2016-05-28T01:01:02.744Z,19.3
2016-05-28T01:01:12.728Z,19.2
2016-05-28T01:01:22.869Z,19.3
2016-05-28T01:01:32.853Z,19.3
2016-05-28T01:01:42.838Z,19.3
2016-05-28T01:01:52.683Z,19.3
2016-05-28T01:02:02.824Z,19.3
2016-05-28T01:02:12.824Z,19.3
2016-05-28T01:02:22.808Z,19.3
2016-05-28T01:02:32.637Z,19.4
2016-05-28T01:02:43.074Z,19.3
2016-05-28T01:02:52.780Z,19.3
2016-05-28T01:03:02.608Z,19.3
2016-05-28T01:03:12.608Z,19.3
2016-05-28T01:03:22.733Z,19.3
2016-05-28T01:03:32.733Z,19.3
2016-05-28T01:03:42.561Z,19.3
2016-05-28T01:03:52.549Z,19.3
2016-05-28T01:04:02.705Z,19.3
2016-05-28T01:04:12.689Z,19.3
2016-05-28T01:04:22.533Z,19.3
2016-05-28T01:04:33.049Z,19.3
2016-05-28T01:04:42.814Z,19.3
2016-05-28T01:04:52.536Z,19.2
2016-05-28T01:05:03.864Z,19.3
2016-05-28T01:05:12.771Z,19.3
2016-05-28T01:05:22.614Z,19.2
2016-05-28T01:05:32.802Z,19.2
2016-05-28T01:05:42.583Z,19.3
2016-05-28T01:05:52.616Z,19.2
2016-05-28T01:06:02.569Z,19.2
2016-05-28T01:06:12.569Z,19.3
2016-05-28T01:06:22.554Z,19.3
2016-05-28T01:06:32.538Z,19.3
2016-05-28T01:06:42.523Z,19.2
2016-05-28T01:06:52.510Z,19.3
2016-05-28T01:07:02.510Z,19.2
2016-05-28T01:07:12.494Z,19.2
2016-05-28T01:07:22.479Z,19.3
2016-05-28T01:07:32.479Z,19.2
2016-05-28T01:07:42.463Z,19.3
2016-05-28T01:07:52.466Z,19.2
2016-05-28T01:08:02.435Z,19.2
2016-05-28T01:08:12.435Z,19.3
2016-05-28T01:08:22.419Z,19.3
2016-05-28T01:08:32.404Z,19.3
2016-05-28T01:08:42.247Z,19.3
2016-05-28T01:08:52.500Z,19.2
2016-05-28T01:09:02.438Z,19.4
2016-05-28T01:09:12.219Z,19.3
2016-05-28T01:09:22.203Z,19.3
2016-05-28T01:09:32.344Z,19.3
2016-05-28T01:09:42.344Z,19.3
2016-05-28T01:09:52.316Z,19.2
2016-05-28T01:10:02.394Z,19.2
2016-05-28T01:10:12.378Z,19.2
2016-05-28T01:10:22.285Z,19.2
2016-05-28T01:10:32.285Z,19.3
2016-05-28T01:10:42.347Z,19.2
2016-05-28T01:10:52.254Z,19.3
2016-05-28T01:11:02.317Z,19.2
2016-05-28T01:11:12.254Z,19.3
2016-05-28T01:11:22.239Z,19.1
2016-05-28T01:11:32.223Z,19.2
2016-05-28T01:11:42.207Z,19.3
2016-05-28T01:11:52.195Z,19.3
2016-05-28T01:12:02.117Z,19.3
2016-05-28T01:12:12.179Z,19.4
2016-05-28T01:12:22.273Z,19.3
2016-05-28T01:12:32.148Z,19.3
2016-05-28T01:12:42.132Z,19.4
2016-05-28T01:12:52.135Z,19.3
2016-05-28T01:13:02.120Z,19.3
2016-05-28T01:13:12.182Z,19.3
2016-05-28T01:13:22.010Z,19.3
2016-05-28T01:13:32.151Z,19.3
2016-05-28T01:13:42.213Z,19.3
2016-05-28T01:13:51.920Z,19.3
2016-05-28T01:14:01.920Z,19.3
2016-05-28T01:14:12.107Z,19.3
2016-05-28T01:14:22.123Z,19.5
2016-05-28T01:14:32.029Z,19.3
2016-05-28T01:14:42.013Z,19.3
2016-05-28T01:14:51.859Z,19.5
2016-05-28T01:15:01.984Z,19.4
2016-05-28T01:15:11.828Z,19.4
2016-05-28T01:15:21.968Z,19.3
2016-05-28T01:15:31.953Z,19.5
2016-05-28T01:15:41.953Z,19.4
2016-05-28T01:15:52.019Z,19.4
2016-05-28T01:16:01.941Z,19.2
2016-05-28T01:16:11.926Z,19.4
2016-05-28T01:16:21.910Z,19.4
2016-05-28T01:16:31.910Z,19.4
2016-05-28T01:16:41.894Z,19.5
2016-05-28T01:16:51.724Z,19.4
2016-05-28T01:17:01.865Z,19.3
2016-05-28T01:17:11.849Z,19.4
2016-05-28T01:17:21.693Z,19.4
2016-05-28T01:17:31.834Z,19.3
2016-05-28T01:17:41.818Z,19.3
2016-05-28T01:17:51.806Z,19.3
2016-05-28T01:18:01.806Z,19.4
2016-05-28T01:18:11.790Z,19.5
2016-05-28T01:18:21.774Z,19.5
2016-05-28T01:18:31.774Z,19.5
2016-05-28T01:18:41.743Z,19.4
2016-05-28T01:18:51.745Z,19.4
2016-05-28T01:19:01.729Z,19.3
2016-05-28T01:19:11.729Z,19.4
2016-05-28T01:19:21.745Z,19.3
2016-05-28T01:19:33.448Z,19.4
2016-05-28T01:19:41.683Z,19.6
2016-05-28T01:19:51.701Z,19.4
2016-05-28T01:20:01.982Z,19.4
2016-05-28T01:20:12.264Z,19.4
2016-05-28T01:20:21.795Z,19.4
2016-05-28T01:20:32.482Z,19.4
2016-05-28T01:20:41.623Z,19.4
2016-05-28T01:20:51.610Z,19.4
2016-05-28T01:21:01.610Z,19.4
2016-05-28T01:21:11.610Z,19.5
2016-05-28T01:21:21.595Z,19.4
2016-05-28T01:21:31.579Z,19.5
2016-05-28T01:21:41.564Z,19.5
2016-05-28T01:21:51.550Z,19.5
2016-05-28T01:22:01.550Z,19.4
2016-05-28T01:22:11.534Z,19.4
2016-05-28T01:22:21.519Z,19.5
2016-05-28T01:22:31.519Z,19.4
2016-05-28T01:22:41.503Z,19.5
2016-05-28T01:22:51.490Z,19.5
2016-05-28T01:23:01.475Z,19.5
2016-05-28T01:23:11.475Z,19.5
2016-05-28T01:23:21.459Z,19.6
2016-05-28T01:23:31.444Z,19.5
2016-05-28T01:23:41.444Z,19.3
2016-05-28T01:23:51.275Z,19.4
2016-05-28T01:24:01.447Z,19.5
2016-05-28T01:24:11.400Z,19.6
2016-05-28T01:24:21.384Z,19.4
2016-05-28T01:24:31.384Z,19.6
2016-05-28T01:24:41.368Z,19.6
2016-05-28T01:24:51.370Z,19.4
2016-05-28T01:25:01.214Z,19.5
2016-05-28T01:25:11.355Z,19.5
2016-05-28T01:25:21.339Z,19.5
2016-05-28T01:25:31.324Z,19.5
2016-05-28T01:25:41.308Z,19.5
2016-05-28T01:25:51.311Z,19.6
2016-05-28T01:26:01.295Z,19.6
2016-05-28T01:26:11.280Z,19.5
2016-05-28T01:26:21.264Z,19.6
2016-05-28T01:26:31.248Z,19.5
2016-05-28T01:26:41.248Z,19.5
2016-05-28T01:26:51.219Z,19.6
2016-05-28T01:27:01.219Z,19.6
2016-05-28T01:27:11.204Z,19.6
2016-05-28T01:27:21.204Z,19.6
2016-05-28T01:27:31.188Z,19.6
2016-05-28T01:27:41.188Z,19.6
2016-05-28T01:27:51.161Z,19.7
2016-05-28T01:28:01.192Z,19.5
2016-05-28T01:28:11.145Z,19.6
2016-05-28T01:28:21.129Z,19.6
2016-05-28T01:28:31.129Z,19.5
2016-05-28T01:28:41.114Z,19.6
2016-05-28T01:28:51.101Z,19.6
2016-05-28T01:29:00.945Z,19.6
2016-05-28T01:29:11.086Z,19.6
2016-05-28T01:29:21.086Z,19.6
2016-05-28T01:29:31.054Z,19.6
2016-05-28T01:29:41.054Z,19.6
2016-05-28T01:29:50.900Z,19.5
2016-05-28T01:30:01.041Z,19.6
2016-05-28T01:30:10.869Z,19.5
2016-05-28T01:30:21.009Z,19.6
2016-05-28T01:30:30.994Z,19.5
2016-05-28T01:30:40.978Z,19.6
2016-05-28T01:30:50.825Z,19.5
2016-05-28T01:31:00.966Z,19.6
2016-05-28T01:31:10.950Z,19.6
2016-05-28T01:31:20.950Z,19.6
2016-05-28T01:31:30.778Z,19.5
2016-05-28T01:31:40.919Z,19.6
2016-05-28T01:31:50.921Z,19.6
2016-05-28T01:32:00.749Z,19.7
2016-05-28T01:32:10.889Z,19.6
2016-05-28T01:32:20.874Z,19.5
2016-05-28T01:32:30.874Z,19.6
2016-05-28T01:32:40.702Z,19.6
2016-05-28T01:32:50.846Z,19.6
2016-05-28T01:33:00.830Z,19.6
2016-05-28T01:33:10.846Z,19.6
2016-05-28T01:33:20.814Z,19.6
2016-05-28T01:33:30.814Z,19.6
2016-05-28T01:33:40.799Z,19.7
2016-05-28T01:33:50.786Z,19.6
2016-05-28T01:34:00.802Z,19.8
2016-05-28T01:34:10.770Z,19.7
2016-05-28T01:34:20.755Z,19.7
2016-05-28T01:34:30.958Z,19.7
2016-05-28T01:34:40.739Z,19.7
2016-05-28T01:34:50.710Z,19.6
2016-05-28T01:35:00.554Z,19.7
2016-05-28T01:35:10.554Z,19.7
2016-05-28T01:35:20.694Z,19.7
2016-05-28T01:35:31.179Z,19.7
2016-05-28T01:35:40.507Z,19.7
2016-05-28T01:35:50.666Z,19.6
2016-05-28T01:36:00.650Z,19.6
2016-05-28T01:36:10.635Z,19.6
2016-05-28T01:36:20.619Z,19.6
2016-05-28T01:36:30.463Z,19.7
2016-05-28T01:36:40.604Z,19.7
2016-05-28T01:36:50.591Z,19.8
2016-05-28T01:37:00.435Z,19.6
2016-05-28T01:37:10.575Z,19.7
2016-05-28T01:37:20.560Z,19.7
2016-05-28T01:37:30.544Z,19.7
2016-05-28T01:37:40.544Z,19.7
2016-05-28T01:37:50.530Z,19.7
2016-05-28T01:38:00.515Z,19.7
2016-05-28T01:38:10.499Z,19.7
2016-05-28T01:38:20.499Z,19.7
2016-05-28T01:38:30.484Z,19.7
2016-05-28T01:38:40.468Z,19.7
2016-05-28T01:38:50.471Z,19.6
2016-05-28T01:39:00.471Z,19.7
2016-05-28T01:39:10.440Z,19.7
2016-05-28T01:39:20.424Z,19.7
2016-05-28T01:39:30.424Z,19.7
2016-05-28T01:39:40.408Z,19.7
2016-05-28T01:39:50.395Z,19.7
2016-05-28T01:40:00.395Z,19.7
2016-05-28T01:40:10.379Z,19.6
2016-05-28T01:40:20.364Z,19.7
2016-05-28T01:40:30.364Z,19.7
2016-05-28T01:40:40.348Z,19.6
2016-05-28T01:40:50.336Z,19.7
2016-05-28T01:41:00.336Z,19.7
2016-05-28T01:41:10.305Z,19.7
2016-05-28T01:41:20.149Z,19.6
2016-05-28T01:41:30.149Z,19.6
2016-05-28T01:41:40.274Z,19.6
2016-05-28T01:41:50.276Z,19.6
2016-05-28T01:42:00.276Z,19.7
2016-05-28T01:42:10.245Z,19.7
2016-05-28T01:42:20.260Z,19.7
2016-05-28T01:42:30.229Z,19.7
2016-05-28T01:42:40.213Z,19.7
2016-05-28T01:42:50.216Z,19.7
2016-05-28T01:43:00.201Z,19.8
2016-05-28T01:43:10.185Z,19.7
2016-05-28T01:43:20.185Z,19.7
2016-05-28T01:43:30.154Z,19.7
2016-05-28T01:43:40.154Z,19.7
2016-05-28T01:43:50.141Z,19.7
2016-05-28T01:44:00.141Z,19.7
2016-05-28T01:44:09.969Z,19.7
2016-05-28T01:44:20.110Z,19.8
2016-05-28T01:44:30.094Z,19.7
2016-05-28T01:44:39.938Z,19.7
2016-05-28T01:44:50.081Z,19.7
2016-05-28T01:45:00.081Z,19.7
2016-05-28T01:45:10.049Z,19.7
2016-05-28T01:45:20.049Z,19.7
2016-05-28T01:45:30.049Z,19.8
2016-05-28T01:45:40.018Z,19.8
2016-05-28T01:45:50.021Z,19.7
2016-05-28T01:46:00.021Z,19.7
2016-05-28T01:46:09.834Z,19.8
2016-05-28T01:46:19.990Z,19.7
2016-05-28T01:46:29.974Z,19.7
2016-05-28T01:46:39.959Z,19.8
2016-05-28T01:46:49.959Z,19.6
2016-05-28T01:46:59.946Z,19.8
2016-05-28T01:47:09.930Z,19.8
2016-05-28T01:47:19.915Z,19.7
2016-05-28T01:47:29.915Z,19.7
2016-05-28T01:47:39.899Z,19.7
2016-05-28T01:47:49.884Z,19.7
2016-05-28T01:47:59.886Z,19.8
2016-05-28T01:48:09.870Z,19.7
2016-05-28T01:48:19.854Z,19.8
2016-05-28T01:48:29.839Z,19.7
2016-05-28T01:48:39.839Z,19.8
2016-05-28T01:48:49.823Z,19.7
2016-05-28T01:48:59.810Z,19.7
2016-05-28T01:49:09.795Z,19.8
2016-05-28T01:49:19.795Z,19.8
2016-05-28T01:49:29.654Z,19.7
2016-05-28T01:49:39.623Z,19.7
2016-05-28T01:49:49.623Z,19.7
2016-05-28T01:49:59.892Z,19.6
2016-05-28T01:50:09.970Z,19.7
2016-05-28T01:50:19.720Z,19.7
2016-05-28T01:50:29.735Z,19.6
2016-05-28T01:50:39.704Z,19.6
2016-05-28T01:50:49.532Z,19.7
2016-05-28T01:50:59.690Z,19.7
2016-05-28T01:51:09.690Z,19.6
2016-05-28T01:51:19.659Z,19.7
2016-05-28T01:51:29.644Z,19.6
2016-05-28T01:51:39.644Z,19.6
2016-05-28T01:51:49.628Z,19.6
2016-05-28T01:51:59.631Z,19.8
2016-05-28T01:52:09.615Z,19.8
2016-05-28T01:52:19.443Z,19.8
2016-05-28T01:52:29.584Z,19.8
2016-05-28T01:52:39.584Z,19.7
2016-05-28T01:52:49.568Z,19.8
2016-05-28T01:52:59.555Z,19.8
2016-05-28T01:53:09.555Z,19.6
2016-05-28T01:53:19.383Z,19.7
2016-05-28T01:53:29.539Z,19.7
2016-05-28T01:53:39.524Z,19.7
2016-05-28T01:53:49.352Z,19.7
2016-05-28T01:53:59.495Z,19.7
2016-05-28T01:54:09.323Z,19.8
2016-05-28T01:54:19.464Z,19.6
2016-05-28T01:54:29.464Z,19.7
2016-05-28T01:54:39.448Z,19.7
2016-05-28T01:54:49.448Z,19.7
2016-05-28T01:54:59.436Z,19.7
2016-05-28T01:55:09.420Z,19.6
2016-05-28T01:55:19.420Z,19.7
2016-05-28T01:55:29.405Z,19.6
2016-05-28T01:55:39.389Z,19.7
2016-05-28T01:55:49.373Z,19.7
2016-05-28T01:55:59.376Z,19.7
2016-05-28T01:56:09.361Z,19.6
2016-05-28T01:56:19.345Z,19.7
2016-05-28T01:56:29.329Z,19.7
2016-05-28T01:56:39.314Z,19.7
2016-05-28T01:56:49.314Z,19.8
2016-05-28T01:56:59.317Z,19.7
2016-05-28T01:57:09.317Z,19.8
2016-05-28T01:57:19.286Z,19.8
2016-05-28T01:57:29.286Z,19.7
2016-05-28T01:57:39.254Z,19.6
2016-05-28T01:57:49.239Z,19.8
2016-05-28T01:57:59.084Z,19.7
2016-05-28T01:58:09.241Z,19.7
2016-05-28T01:58:19.209Z,19.7
2016-05-28T01:58:29.209Z,19.8
2016-05-28T01:58:39.194Z,19.6
2016-05-28T01:58:49.178Z,19.7
2016-05-28T01:58:59.181Z,19.6
2016-05-28T01:59:09.166Z,19.8
2016-05-28T01:59:19.150Z,19.6
2016-05-28T01:59:29.134Z,19.7
2016-05-28T01:59:39.134Z,19.7
2016-05-28T01:59:49.119Z,19.7
2016-05-28T01:59:58.950Z,19.7
2016-05-28T02:00:09.106Z,19.7
2016-05-28T02:00:18.934Z,19.7
2016-05-28T02:00:29.075Z,19.7
2016-05-28T02:00:39.075Z,19.8
2016-05-28T02:00:49.059Z,19.7
2016-05-28T02:00:58.889Z,19.6
2016-05-28T02:01:09.046Z,19.7
2016-05-28T02:01:19.014Z,19.7
2016-05-28T02:01:29.014Z,19.7
2016-05-28T02:01:38.999Z,19.7
2016-05-28T02:01:48.983Z,19.7
2016-05-28T02:01:58.830Z,19.7
2016-05-28T02:02:08.970Z,19.7
2016-05-28T02:02:18.970Z,19.8
2016-05-28T02:02:28.955Z,19.7
2016-05-28T02:02:38.939Z,19.7
2016-05-28T02:02:48.924Z,19.7
2016-05-28T02:02:58.941Z,19.8
2016-05-28T02:03:08.910Z,19.8
2016-05-28T02:03:18.894Z,19.8
2016-05-28T02:03:28.879Z,19.7
2016-05-28T02:03:38.879Z,19.8
2016-05-28T02:03:48.879Z,19.7
2016-05-28T02:03:58.850Z,19.7
2016-05-28T02:04:08.835Z,19.8
2016-05-28T02:04:18.835Z,19.8
2016-05-28T02:04:29.054Z,19.7
2016-05-28T02:04:38.804Z,19.8
2016-05-28T02:04:49.225Z,19.8
2016-05-28T02:04:58.635Z,19.7
2016-05-28T02:05:08.807Z,19.7
2016-05-28T02:05:19.088Z,19.7
2016-05-28T02:05:28.775Z,19.8
2016-05-28T02:05:38.760Z,19.8
2016-05-28T02:05:48.728Z,19.9
2016-05-28T02:05:58.747Z,19.8
2016-05-28T02:06:08.716Z,19.8
2016-05-28T02:06:18.700Z,19.8
2016-05-28T02:06:28.700Z,19.7
2016-05-28T02:06:38.669Z,19.7
2016-05-28T02:06:48.669Z,19.8
2016-05-28T02:06:58.656Z,19.8
2016-05-28T02:07:08.516Z,19.8
2016-05-28T02:07:18.641Z,19.8
2016-05-28T02:07:28.641Z,19.8
2016-05-28T02:07:38.484Z,19.8
2016-05-28T02:07:48.609Z,19.7
2016-05-28T02:07:58.596Z,19.8
2016-05-28T02:08:08.580Z,19.8
2016-05-28T02:08:18.580Z,19.8
2016-05-28T02:08:28.565Z,19.8
2016-05-28T02:08:38.549Z,19.8
2016-05-28T02:08:48.549Z,19.7
2016-05-28T02:08:58.536Z,19.9
2016-05-28T02:09:08.521Z,19.8
2016-05-28T02:09:18.505Z,19.7
2016-05-28T02:09:28.505Z,19.7
2016-05-28T02:09:38.489Z,19.6
2016-05-28T02:09:48.489Z,19.7
2016-05-28T02:09:58.321Z,19.8
2016-05-28T02:10:08.477Z,19.7
2016-05-28T02:10:18.446Z,19.8
2016-05-28T02:10:28.446Z,19.7
2016-05-28T02:10:38.461Z,19.7
2016-05-28T02:10:48.414Z,19.7
2016-05-28T02:10:58.402Z,19.7
2016-05-28T02:11:08.245Z,19.8
2016-05-28T02:11:18.386Z,19.8
2016-05-28T02:11:28.386Z,19.7
2016-05-28T02:11:38.355Z,19.8
2016-05-28T02:11:48.339Z,19.7
2016-05-28T02:11:58.341Z,19.7
2016-05-28T02:12:08.341Z,19.7
2016-05-28T02:12:18.326Z,19.7
2016-05-28T02:12:28.310Z,19.6
2016-05-28T02:12:38.294Z,19.7
2016-05-28T02:12:48.294Z,19.7
2016-05-28T02:12:58.281Z,19.8
2016-05-28T02:13:08.265Z,19.7